Time;durP1;ratioP1;P1;durP2;ratioP2;P2;SDS_P1;SDS_P2;PMS_P1;PMS_P2;Temp;Humidity;BMP_temperature;BMP_pressure;BME280_temperature;BME280_humidity;BME280_pressure;Samples;Min_cycle;Max_cycle;Signal;HPM_P1;HPM_P2
2022/07/17 00:00:12;;;;;;;6.10;2.05;;;10.80;99.90;;;;;;5068794;28;20080;-69
2022/07/17 00:02:38;;;;;;;3.30;1.90;;;10.80;99.90;;;;;;5051395;28;20040;-69
2022/07/17 00:05:04;;;;;;;3.45;1.60;;;10.80;99.90;;;;;;5052512;28;20056;-70
2022/07/17 00:07:30;;;;;;;3.78;2.08;;;10.70;99.90;;;;;;5065113;28;20052;-69
2022/07/17 00:09:56;;;;;;;3.90;1.95;;;10.70;99.90;;;;;;5053187;28;20102;-70
2022/07/17 00:12:22;;;;;;;4.50;1.65;;;10.70;99.90;;;;;;5069548;28;20056;-69
2022/07/17 00:14:47;;;;;;;4.20;1.70;;;10.70;99.90;;;;;;5053187;28;20041;-69
2022/07/17 00:17:14;;;;;;;6.32;2.00;;;10.70;99.90;;;;;;5071057;28;20170;-69
2022/07/17 00:19:40;;;;;;;4.07;2.20;;;10.60;99.90;;;;;;5070506;28;20041;-69
2022/07/17 00:22:05;;;;;;;3.05;2.00;;;10.60;99.90;;;;;;5071969;28;20482;-69
2022/07/17 00:24:31;;;;;;;4.60;2.13;;;10.60;99.90;;;;;;5071764;28;20049;-70
2022/07/17 00:26:56;;;;;;;4.43;2.15;;;10.60;99.90;;;;;;5054937;28;20025;-69
2022/07/17 00:29:22;;;;;;;4.72;2.00;;;10.50;99.90;;;;;;5055221;28;20064;-69
2022/07/17 00:31:48;;;;;;;3.40;2.17;;;10.50;99.90;;;;;;5064422;28;20049;-69
2022/07/17 00:34:13;;;;;;;3.20;2.13;;;10.50;99.90;;;;;;5056146;28;20123;-69
2022/07/17 00:36:39;;;;;;;3.17;1.98;;;10.50;99.90;;;;;;5074610;28;20093;-69
2022/07/17 00:39:04;;;;;;;4.22;2.13;;;10.40;99.90;;;;;;5057359;28;20124;-69
2022/07/17 00:41:30;;;;;;;2.90;1.80;;;10.40;99.90;;;;;;5071454;28;20072;-69
2022/07/17 00:44:06;;;;;;;3.42;2.13;;;10.50;99.90;;;;;;5056385;28;20048;-70
2022/07/17 00:46:32;;;;;;;5.35;2.65;;;10.40;99.90;;;;;;5052541;28;20043;-70
2022/07/17 00:48:58;;;;;;;4.03;2.35;;;10.40;99.90;;;;;;5056452;28;20040;-70
2022/07/17 00:51:24;;;;;;;4.68;1.90;;;10.30;99.90;;;;;;5054791;28;20059;-69
2022/07/17 00:53:51;;;;;;;2.58;1.70;;;10.30;99.90;;;;;;5044358;28;20072;-69
2022/07/17 00:56:17;;;;;;;5.00;2.83;;;10.30;99.90;;;;;;5069579;28;20047;-69
2022/07/17 00:58:44;;;;;;;4.68;2.10;;;10.30;99.90;;;;;;5083563;28;20082;-70
2022/07/17 01:01:09;;;;;;;4.15;1.92;;;10.30;99.90;;;;;;5073556;28;20036;-70
2022/07/17 01:03:35;;;;;;;3.20;1.98;;;10.20;99.90;;;;;;5073060;28;20028;-70
2022/07/17 01:06:02;;;;;;;2.40;1.70;;;10.20;99.90;;;;;;5071369;28;20115;-70
2022/07/17 01:08:28;;;;;;;2.38;1.63;;;10.10;99.90;;;;;;5036105;28;20052;-70
2022/07/17 01:10:54;;;;;;;2.55;1.83;;;10.10;99.90;;;;;;5072437;28;20040;-69
2022/07/17 01:13:20;;;;;;;4.30;1.92;;;10.10;99.90;;;;;;5055636;28;20160;-69
2022/07/17 01:15:45;;;;;;;4.05;2.10;;;10.10;99.90;;;;;;5073639;28;20039;-69
2022/07/17 01:18:13;;;;;;;2.17;1.80;;;10.00;99.90;;;;;;5055033;28;20377;-69
2022/07/17 01:20:42;;;;;;;3.20;1.70;;;10.00;99.90;;;;;;5072577;28;20109;-69
2022/07/17 01:23:08;;;;;;;2.67;2.05;;;10.00;99.90;;;;;;5071455;28;20098;-69
2022/07/17 01:25:35;;;;;;;2.63;1.95;;;10.00;99.90;;;;;;5067660;28;20040;-69
2022/07/17 01:28:00;;;;;;;2.88;1.95;;;10.00;99.90;;;;;;5056504;28;20194;-69
2022/07/17 01:30:27;;;;;;;4.18;2.05;;;10.00;99.90;;;;;;5074604;28;20389;-69
2022/07/17 01:32:53;;;;;;;5.53;2.30;;;9.90;99.90;;;;;;5054638;28;20040;-69
2022/07/17 01:35:19;;;;;;;5.35;2.15;;;9.90;99.90;;;;;;5073196;28;20051;-70
2022/07/17 01:37:45;;;;;;;2.35;2.15;;;9.90;99.90;;;;;;5072833;28;20702;-69
2022/07/17 01:40:13;;;;;;;4.57;2.20;;;9.90;99.90;;;;;;5072180;28;20177;-69
2022/07/17 01:42:42;;;;;;;4.78;2.70;;;9.90;99.90;;;;;;5043953;28;20036;-69
2022/07/17 01:45:08;;;;;;;2.83;2.00;;;9.90;99.90;;;;;;5051351;28;20519;-69
2022/07/17 01:47:34;;;;;;;4.07;1.90;;;9.90;99.90;;;;;;5070234;28;20039;-69
2022/07/17 01:50:00;;;;;;;3.15;2.13;;;9.90;99.90;;;;;;5076683;28;20159;-69
2022/07/17 01:52:26;;;;;;;3.60;2.10;;;9.80;99.90;;;;;;5072033;28;20032;-69
2022/07/17 01:54:52;;;;;;;3.15;1.80;;;9.80;99.90;;;;;;5071687;28;20405;-69
2022/07/17 01:57:18;;;;;;;3.45;2.05;;;9.80;99.90;;;;;;5054520;28;20059;-70
2022/07/17 01:59:44;;;;;;;3.17;2.50;;;9.80;99.90;;;;;;5070340;28;20382;-69
2022/07/17 02:02:11;;;;;;;3.00;2.17;;;9.80;99.90;;;;;;5052966;28;20042;-69
2022/07/17 02:04:38;;;;;;;3.20;2.00;;;9.80;99.90;;;;;;5070927;28;20375;-69
2022/07/17 02:07:04;;;;;;;3.65;2.13;;;9.70;99.90;;;;;;5036240;28;20059;-69
2022/07/17 02:09:30;;;;;;;3.50;2.10;;;9.70;99.90;;;;;;5053522;28;20390;-69
2022/07/17 02:11:56;;;;;;;3.00;1.90;;;9.70;99.90;;;;;;5053441;28;20099;-69
2022/07/17 02:14:22;;;;;;;2.28;1.60;;;9.70;99.90;;;;;;5053790;28;20666;-69
2022/07/17 02:16:48;;;;;;;2.30;1.60;;;9.70;99.90;;;;;;5070213;28;20032;-69
2022/07/17 02:19:14;;;;;;;2.55;1.50;;;9.70;99.90;;;;;;5052586;28;20433;-69
2022/07/17 02:21:40;;;;;;;3.53;1.70;;;9.70;99.90;;;;;;5072082;28;20119;-69
2022/07/17 02:24:05;;;;;;;3.53;1.77;;;9.70;99.90;;;;;;5053765;28;20658;-68
2022/07/17 02:26:32;;;;;;;2.40;1.55;;;9.60;99.90;;;;;;5072760;28;20097;-69
2022/07/17 02:28:57;;;;;;;3.05;1.40;;;9.60;99.90;;;;;;5072857;28;20413;-69
2022/07/17 02:31:23;;;;;;;3.45;1.63;;;9.60;99.90;;;;;;5070743;28;20070;-69
2022/07/17 02:33:48;;;;;;;2.97;1.52;;;9.50;99.90;;;;;;5067303;28;20039;-69
2022/07/17 02:36:14;;;;;;;3.97;1.67;;;9.50;99.90;;;;;;5051900;28;20056;-69
2022/07/17 02:38:40;;;;;;;3.42;2.00;;;9.40;99.90;;;;;;5053770;28;20046;-68
2022/07/17 02:41:06;;;;;;;2.30;2.10;;;9.50;99.90;;;;;;5084362;28;20119;-69
2022/07/17 02:43:31;;;;;;;3.28;2.13;;;9.40;99.90;;;;;;5052501;28;20068;-69
2022/07/17 02:45:57;;;;;;;2.13;1.90;;;9.40;99.90;;;;;;5054086;28;20067;-69
2022/07/17 02:48:23;;;;;;;3.95;2.20;;;9.40;99.90;;;;;;5071659;28;20028;-69
2022/07/17 02:50:48;;;;;;;4.05;2.40;;;9.40;99.90;;;;;;5062920;28;20086;-69
2022/07/17 02:53:14;;;;;;;3.97;2.63;;;9.40;99.90;;;;;;5068752;28;20040;-69
2022/07/17 02:55:40;;;;;;;2.45;2.17;;;9.50;99.90;;;;;;5052537;28;20051;-69
2022/07/17 02:58:05;;;;;;;2.10;1.92;;;9.50;99.90;;;;;;5053262;28;20036;-69
2022/07/17 03:00:31;;;;;;;2.40;2.20;;;9.50;99.90;;;;;;5033198;28;20378;-69
2022/07/17 03:02:56;;;;;;;1.90;1.80;;;9.50;99.90;;;;;;5071168;28;20055;-69
2022/07/17 03:05:22;;;;;;;4.03;2.40;;;9.40;99.90;;;;;;5070408;28;20504;-69
2022/07/17 03:07:48;;;;;;;3.83;2.47;;;9.40;99.90;;;;;;5049541;28;20053;-69
2022/07/17 03:10:14;;;;;;;3.70;2.63;;;9.40;99.90;;;;;;5033112;28;20505;-69
2022/07/17 03:12:40;;;;;;;4.30;2.63;;;9.30;99.90;;;;;;5049850;28;20041;-69
2022/07/17 03:15:07;;;;;;;3.80;2.90;;;9.30;99.90;;;;;;5051195;28;20060;-69
2022/07/17 03:17:33;;;;;;;4.22;2.55;;;9.30;99.90;;;;;;5048795;28;20099;-68
2022/07/17 03:19:58;;;;;;;2.90;2.60;;;9.30;99.90;;;;;;5039531;28;20048;-70
2022/07/17 03:22:24;;;;;;;3.75;3.05;;;9.30;99.90;;;;;;5050131;28;20049;-70
2022/07/17 03:24:50;;;;;;;4.18;2.67;;;9.30;99.90;;;;;;5050778;28;20037;-70
2022/07/17 03:27:15;;;;;;;4.20;2.75;;;9.20;99.90;;;;;;5049641;28;20045;-70
2022/07/17 03:29:41;;;;;;;4.68;3.15;;;9.20;99.90;;;;;;5048191;28;20043;-69
2022/07/17 03:32:07;;;;;;;3.20;2.60;;;9.20;99.90;;;;;;5039632;28;20554;-69
2022/07/17 03:34:32;;;;;;;3.95;3.20;;;9.20;99.90;;;;;;5040923;28;20045;-69
2022/07/17 03:36:58;;;;;;;3.97;3.17;;;9.10;99.90;;;;;;5037243;28;20041;-70
2022/07/17 03:39:23;;;;;;;6.70;3.28;;;9.20;99.90;;;;;;5041200;28;20041;-70
2022/07/17 03:41:49;;;;;;;6.57;3.17;;;9.20;99.90;;;;;;5042937;28;20045;-70
2022/07/17 03:44:15;;;;;;;4.50;2.95;;;9.20;99.90;;;;;;5045369;28;20095;-69
2022/07/17 03:46:40;;;;;;;2.80;2.60;;;9.20;99.90;;;;;;5051905;28;20040;-70
2022/07/17 03:49:06;;;;;;;4.00;3.08;;;9.20;99.90;;;;;;5049435;28;20127;-69
2022/07/17 03:51:31;;;;;;;3.53;2.83;;;9.20;99.90;;;;;;5049211;28;20033;-69
2022/07/17 03:53:57;;;;;;;5.13;2.97;;;9.10;99.90;;;;;;5050692;28;20043;-69
2022/07/17 03:56:23;;;;;;;5.55;3.38;;;9.20;99.90;;;;;;5046028;28;20056;-69
2022/07/17 03:58:49;;;;;;;3.30;2.97;;;9.20;99.90;;;;;;5066211;28;20047;-69
2022/07/17 04:01:15;;;;;;;3.28;2.88;;;9.20;99.90;;;;;;5066242;28;20526;-69
2022/07/17 04:03:40;;;;;;;4.22;3.40;;;9.20;99.90;;;;;;5057605;28;20044;-69
2022/07/17 04:06:06;;;;;;;6.95;3.17;;;9.30;99.90;;;;;;5049322;28;20736;-69
2022/07/17 04:08:32;;;;;;;3.88;3.10;;;9.30;99.90;;;;;;5063681;28;20203;-69
2022/07/17 04:10:58;;;;;;;3.80;3.30;;;9.40;99.90;;;;;;5046754;28;20076;-69
2022/07/17 04:13:23;;;;;;;5.68;2.90;;;9.40;99.90;;;;;;5047146;28;20037;-69
2022/07/17 04:15:49;;;;;;;4.28;2.80;;;9.40;99.90;;;;;;5024794;28;20045;-69
2022/07/17 04:18:23;;;;;;;5.72;2.63;;;9.50;99.90;;;;;;5062002;28;20045;-69
2022/07/17 04:20:49;;;;;;;5.45;2.78;;;9.60;99.90;;;;;;5040769;28;20071;-69
2022/07/17 04:23:15;;;;;;;5.53;2.78;;;9.60;99.90;;;;;;5053939;28;20043;-69
2022/07/17 04:25:41;;;;;;;3.90;2.60;;;9.70;99.90;;;;;;5063052;28;20045;-69
2022/07/17 04:28:07;;;;;;;4.28;2.85;;;9.80;99.90;;;;;;5047333;28;20477;-69
2022/07/17 04:30:34;;;;;;;3.58;3.10;;;9.80;99.90;;;;;;5049979;28;20467;-68
2022/07/17 04:32:59;;;;;;;3.90;3.00;;;9.90;99.90;;;;;;5052769;28;20051;-69
2022/07/17 04:35:25;;;;;;;3.35;3.05;;;9.90;99.90;;;;;;5070705;28;20386;-69
2022/07/17 04:37:50;;;;;;;9.27;3.03;;;10.00;99.90;;;;;;5070086;28;20369;-69
2022/07/17 04:40:16;;;;;;;3.67;3.08;;;10.10;99.90;;;;;;5069636;28;20083;-69
2022/07/17 04:42:42;;;;;;;5.15;3.47;;;10.10;99.90;;;;;;5057051;28;20036;-69
2022/07/17 04:45:08;;;;;;;7.40;3.58;;;10.20;99.90;;;;;;5057134;28;20044;-70
2022/07/17 04:47:36;;;;;;;4.90;3.25;;;10.30;99.90;;;;;;5051749;28;20543;-69
2022/07/17 04:50:02;;;;;;;7.57;3.38;;;10.40;99.90;;;;;;5052448;28;20464;-69
2022/07/17 04:52:28;;;;;;;4.20;3.20;;;10.50;99.90;;;;;;5069383;28;20041;-70
2022/07/17 04:54:53;;;;;;;4.53;3.35;;;10.60;99.90;;;;;;5071356;28;20046;-69
2022/07/17 04:57:19;;;;;;;4.15;3.10;;;10.70;99.90;;;;;;5047663;28;20051;-69
2022/07/17 04:59:44;;;;;;;3.85;2.97;;;10.80;99.90;;;;;;5051781;28;20071;-69
2022/07/17 05:02:10;;;;;;;5.50;3.30;;;10.90;99.90;;;;;;5038128;28;20054;-69
2022/07/17 05:04:36;;;;;;;3.38;2.85;;;10.90;99.90;;;;;;5051675;28;20047;-69
2022/07/17 05:07:01;;;;;;;5.45;3.25;;;11.00;99.90;;;;;;5070008;28;20052;-69
2022/07/17 05:09:27;;;;;;;5.55;3.53;;;11.00;99.90;;;;;;5055680;28;20048;-69
2022/07/17 05:11:52;;;;;;;8.20;4.28;;;11.00;99.90;;;;;;5055090;28;20123;-70
2022/07/17 05:14:18;;;;;;;4.75;3.42;;;11.10;99.90;;;;;;5054796;28;20040;-69
2022/07/17 05:16:43;;;;;;;7.05;3.50;;;11.20;99.90;;;;;;5053679;28;20048;-69
2022/07/17 05:19:09;;;;;;;6.22;3.92;;;11.30;99.90;;;;;;5071977;28;20032;-70
2022/07/17 05:21:35;;;;;;;3.78;3.38;;;11.30;99.90;;;;;;5074024;28;20049;-69
2022/07/17 05:24:00;;;;;;;4.45;3.28;;;11.40;99.90;;;;;;5071336;28;20383;-69
2022/07/17 05:26:26;;;;;;;6.53;3.78;;;11.40;99.90;;;;;;5055130;28;20038;-69
2022/07/17 05:28:52;;;;;;;8.75;3.50;;;11.50;99.90;;;;;;5055160;28;20123;-69
2022/07/17 05:31:17;;;;;;;4.75;3.20;;;11.50;99.90;;;;;;5053987;28;20096;-69
2022/07/17 05:33:43;;;;;;;4.40;3.40;;;11.60;99.90;;;;;;5052501;28;20032;-70
2022/07/17 05:36:09;;;;;;;4.18;3.17;;;11.80;99.90;;;;;;5054872;28;20048;-70
2022/07/17 05:38:34;;;;;;;4.93;3.22;;;11.90;99.90;;;;;;5080136;28;20044;-69
2022/07/17 05:41:00;;;;;;;5.07;2.80;;;12.00;99.90;;;;;;5054207;28;20052;-69
2022/07/17 05:43:26;;;;;;;4.65;3.40;;;12.00;99.90;;;;;;5070742;28;20549;-69
2022/07/17 05:45:58;;;;;;;4.97;3.03;;;12.10;99.90;;;;;;5072124;28;20063;-69
2022/07/17 05:48:24;;;;;;;7.13;3.17;;;12.20;99.90;;;;;;5046280;28;20044;-69
2022/07/17 05:50:50;;;;;;;6.50;2.97;;;12.30;99.90;;;;;;5052799;28;20047;-69
2022/07/17 05:53:16;;;;;;;6.18;3.00;;;12.40;99.90;;;;;;5065318;28;20115;-69
2022/07/17 05:55:42;;;;;;;6.22;3.00;;;12.50;99.90;;;;;;5055042;28;20048;-69
2022/07/17 05:58:08;;;;;;;6.55;3.28;;;12.60;99.90;;;;;;5054487;28;20047;-68
2022/07/17 06:00:34;;;;;;;4.10;2.67;;;12.70;99.90;;;;;;5052489;28;20033;-69
2022/07/17 06:03:00;;;;;;;4.57;2.70;;;12.80;99.90;;;;;;5054466;28;20041;-69
2022/07/17 06:05:26;;;;;;;5.43;2.83;;;12.90;99.90;;;;;;5055103;28;20102;-69
2022/07/17 06:07:53;;;;;;;3.47;2.50;;;13.00;99.90;;;;;;5053301;28;20055;-69
2022/07/17 06:10:19;;;;;;;5.07;2.60;;;13.60;99.90;;;;;;5069663;28;20048;-69
2022/07/17 06:12:45;;;;;;;4.75;2.50;;;14.90;99.90;;;;;;5072302;28;20037;-69
2022/07/17 06:15:11;;;;;;;5.72;2.30;;;16.10;99.90;;;;;;5037766;28;20047;-70
2022/07/17 06:17:37;;;;;;;6.82;2.38;;;16.80;99.90;;;;;;5054200;28;20044;-69
2022/07/17 06:20:03;;;;;;;4.55;2.15;;;18.20;99.90;;;;;;5052220;28;20135;-69
2022/07/17 06:22:29;;;;;;;5.05;2.17;;;;;;;;;;5036102;28;20048;-69
2022/07/17 06:24:55;;;;;;;3.72;1.42;;;21.20;99.90;;;;;;5072911;28;20040;-70
2022/07/17 06:27:20;;;;;;;4.72;1.60;;;22.30;98.40;;;;;;5054041;28;20046;-70
2022/07/17 06:29:47;;;;;;;3.58;1.58;;;23.10;96.60;;;;;;5072788;28;20582;-70
2022/07/17 06:32:13;;;;;;;3.67;1.75;;;23.80;95.30;;;;;;5053346;28;20363;-70
2022/07/17 06:34:38;;;;;;;3.40;1.45;;;24.50;91.40;;;;;;5069932;28;20046;-70
2022/07/17 06:37:04;;;;;;;3.65;1.52;;;25.20;92.20;;;;;;5057552;28;20112;-70
2022/07/17 06:39:30;;;;;;;2.83;1.20;;;25.80;90.70;;;;;;5074606;28;20073;-70
2022/07/17 06:41:55;;;;;;;3.72;1.50;;;26.50;89.00;;;;;;5057547;28;20044;-70
2022/07/17 06:44:21;;;;;;;2.95;1.25;;;26.90;87.20;;;;;;5070328;28;20044;-70
2022/07/17 06:46:46;;;;;;;4.07;1.40;;;27.10;84.90;;;;;;5053622;28;20040;-71
2022/07/17 06:49:12;;;;;;;3.60;1.20;;;26.50;84.80;;;;;;5054438;28;20037;-69
2022/07/17 06:51:38;;;;;;;3.88;1.65;;;25.80;84.40;;;;;;5054051;28;21552;-69
2022/07/17 06:54:03;;;;;;;3.03;1.20;;;25.30;84.00;;;;;;5061745;28;20102;-70
2022/07/17 06:56:29;;;;;;;5.45;1.25;;;25.20;84.20;;;;;;5067399;28;20044;-71
2022/07/17 06:58:54;;;;;;;4.15;1.17;;;24.80;84.90;;;;;;5053721;28;20045;-70
2022/07/17 07:01:20;;;;;;;3.83;1.33;;;24.90;85.10;;;;;;5070043;28;20298;-69
2022/07/17 07:03:45;;;;;;;3.35;0.90;;;24.30;86.50;;;;;;5072148;28;20037;-68
2022/07/17 07:06:11;;;;;;;4.45;1.25;;;23.50;88.10;;;;;;5054153;28;20036;-70
2022/07/17 07:08:37;;;;;;;3.47;1.08;;;22.70;88.40;;;;;;5050795;28;20052;-70
2022/07/17 07:11:03;;;;;;;3.95;0.98;;;22.10;89.40;;;;;;5075573;28;20116;-70
2022/07/17 07:13:28;;;;;;;4.18;1.20;;;21.60;90.70;;;;;;5071799;28;20043;-69
2022/07/17 07:15:54;;;;;;;3.88;1.25;;;21.10;90.70;;;;;;5053381;28;20040;-70
2022/07/17 07:18:20;;;;;;;4.30;1.30;;;20.70;91.40;;;;;;5071924;28;20040;-70
2022/07/17 07:20:46;;;;;;;3.40;1.20;;;20.40;92.20;;;;;;5036250;28;20107;-69
2022/07/17 07:23:11;;;;;;;10.00;1.65;;;20.20;92.70;;;;;;5051581;28;20143;-70
2022/07/17 07:25:37;;;;;;;5.20;1.30;;;20.00;93.50;;;;;;5049179;28;20070;-70
2022/07/17 07:28:03;;;;;;;2.42;0.90;;;19.70;93.40;;;;;;5051392;28;20132;-70
2022/07/17 07:30:29;;;;;;;3.85;1.10;;;19.70;93.60;;;;;;5070746;28;20381;-70
2022/07/17 07:32:55;;;;;;;5.93;1.10;;;19.40;93.20;;;;;;5053992;28;20048;-70
2022/07/17 07:35:20;;;;;;;4.28;1.10;;;19.30;93.80;;;;;;5053573;28;20053;-69
2022/07/17 07:37:46;;;;;;;2.78;1.20;;;19.20;94.30;;;;;;5052784;28;20044;-69
2022/07/17 07:40:12;;;;;;;4.43;1.35;;;19.20;94.30;;;;;;5070928;28;20413;-70
2022/07/17 07:42:38;;;;;;;2.67;0.90;;;19.20;94.20;;;;;;5037169;28;20078;-70
2022/07/17 07:45:04;;;;;;;4.93;1.10;;;19.20;94.50;;;;;;5033232;28;20048;-70
2022/07/17 07:47:30;;;;;;;5.00;1.20;;;19.20;94.50;;;;;;5033694;28;20458;-70
2022/07/17 07:49:55;;;;;;;4.50;1.00;;;19.10;94.20;;;;;;5033631;28;20151;-69
2022/07/17 07:52:21;;;;;;;3.53;0.93;;;19.20;94.50;;;;;;5033427;28;20040;-69
2022/07/17 07:54:47;;;;;;;4.35;1.30;;;19.30;94.30;;;;;;5048606;28;20064;-70
2022/07/17 07:57:12;;;;;;;3.25;0.90;;;19.30;94.30;;;;;;5071311;28;20040;-70
2022/07/17 07:59:38;;;;;;;3.88;1.02;;;19.40;94.00;;;;;;5033440;28;20045;-70
2022/07/17 08:02:03;;;;;;;3.70;0.93;;;19.30;93.80;;;;;;5050244;28;20444;-70
2022/07/17 08:04:30;;;;;;;4.32;1.10;;;19.40;93.80;;;;;;5071180;28;20075;-69
2022/07/17 08:06:56;;;;;;;3.15;1.25;;;19.40;93.50;;;;;;5052888;28;20057;-70
2022/07/17 08:09:21;;;;;;;5.93;1.23;;;19.40;93.50;;;;;;5071121;28;20051;-70
2022/07/17 08:11:47;;;;;;;5.60;1.30;;;19.50;93.10;;;;;;5071189;28;20048;-69
2022/07/17 08:14:13;;;;;;;4.10;1.20;;;19.70;93.30;;;;;;5069376;28;20366;-70
2022/07/17 08:16:38;;;;;;;5.07;1.00;;;19.80;93.40;;;;;;5045600;28;20040;-69
2022/07/17 08:19:04;;;;;;;2.90;1.17;;;19.90;92.70;;;;;;5037109;28;20086;-71
2022/07/17 08:23:58;;;;;;;4.75;1.20;;;19.90;93.00;;;;;;5069062;28;20043;-67
2022/07/17 08:26:23;;;;;;;5.40;1.60;;;19.90;93.30;;;;;;5058133;28;20692;-68
2022/07/17 08:28:49;;;;;;;5.10;1.23;;;20.00;93.00;;;;;;5042115;28;20044;-67
2022/07/17 08:31:14;;;;;;;3.47;1.30;;;20.10;92.60;;;;;;5048399;28;20072;-67
2022/07/17 08:33:40;;;;;;;5.22;1.08;;;20.40;92.80;;;;;;5050352;28;20040;-67
2022/07/17 08:36:06;;;;;;;4.50;1.15;;;20.50;92.70;;;;;;5054970;28;20044;-67
2022/07/17 08:38:32;;;;;;;5.13;0.95;;;20.70;91.60;;;;;;5038933;28;20041;-67
2022/07/17 08:40:58;;;;;;;5.45;1.20;;;20.70;91.90;;;;;;5051597;28;20055;-68
2022/07/17 08:43:24;;;;;;;6.63;1.27;;;19.80;92.40;;;;;;5034628;28;20033;-67
2022/07/17 08:45:51;;;;;;;3.42;1.00;;;20.00;92.60;;;;;;5051120;28;20365;-67
2022/07/17 08:48:18;;;;;;;4.07;1.10;;;19.90;90.70;;;;;;5073106;28;20028;-67
2022/07/17 08:50:46;;;;;;;2.65;0.90;;;19.70;92.20;;;;;;5055489;28;20060;-67
2022/07/17 08:53:12;;;;;;;3.40;1.10;;;19.80;92.60;;;;;;5087783;28;20048;-68
2022/07/17 08:55:38;;;;;;;16.65;2.05;;;20.10;92.00;;;;;;5056143;28;20036;-67
2022/07/17 08:58:06;;;;;;;4.25;1.30;;;20.10;92.10;;;;;;5054731;28;20037;-68
2022/07/17 09:00:32;;;;;;;3.45;0.98;;;20.20;92.10;;;;;;5051960;28;20054;-67
2022/07/17 09:02:59;;;;;;;3.67;1.00;;;20.30;91.70;;;;;;5065224;28;20114;-67
2022/07/17 09:05:27;;;;;;;3.20;1.00;;;20.30;91.90;;;;;;5055029;28;20060;-67
2022/07/17 09:07:53;;;;;;;3.60;1.00;;;20.40;92.20;;;;;;5058992;28;20375;-67
2022/07/17 09:10:36;;;;;;;4.75;1.20;;;20.60;91.30;;;;;;5060879;28;20034;-67
2022/07/17 09:13:33;;;;;;;5.93;1.02;;;20.40;91.40;;;;;;5052697;28;20121;-67
2022/07/17 09:16:07;;;;;;;3.55;1.05;;;20.40;92.30;;;;;;5042911;28;20048;-67
2022/07/17 09:18:49;;;;;;;2.65;1.00;;;20.60;91.80;;;;;;5079874;28;20771;-67
2022/07/17 09:21:20;;;;;;;3.63;1.15;;;20.80;91.30;;;;;;5050799;28;20521;-67
2022/07/17 09:23:45;;;;;;;1.97;0.90;;;20.90;91.30;;;;;;5076549;28;20128;-67
2022/07/17 09:26:11;;;;;;;4.40;1.45;;;20.90;90.20;;;;;;5046311;28;20812;-67
2022/07/17 09:28:47;;;;;;;4.28;1.15;;;20.90;91.00;;;;;;5035213;28;20055;-67
2022/07/17 09:31:23;;;;;;;4.93;1.00;;;20.90;90.80;;;;;;5084488;28;20085;-67
2022/07/17 09:33:48;;;;;;;2.83;1.00;;;20.90;90.70;;;;;;5040495;28;20127;-67
2022/07/17 09:36:14;;;;;;;2.53;0.90;;;20.60;90.50;;;;;;5066408;28;20194;-67
2022/07/17 09:38:42;;;;;;;3.15;0.93;;;20.70;91.10;;;;;;5043770;28;20056;-67
2022/07/17 09:41:16;;;;;;;3.13;1.13;;;20.80;91.40;;;;;;5046428;28;20040;-67
2022/07/17 09:43:54;;;;;;;4.55;1.00;;;21.00;90.90;;;;;;5055674;28;20059;-67
2022/07/17 09:46:27;;;;;;;4.10;1.20;;;21.10;90.00;;;;;;5054455;28;20044;-67
2022/07/17 09:48:54;;;;;;;4.47;1.30;;;21.20;90.20;;;;;;5038479;28;20068;-71
2022/07/17 09:51:24;;;;;;;3.45;1.25;;;21.30;90.20;;;;;;5039769;28;20036;-71
2022/07/17 09:53:52;;;;;;;2.85;1.15;;;21.30;88.50;;;;;;5054336;28;20048;-71
2022/07/17 09:56:21;;;;;;;3.03;1.15;;;21.00;90.00;;;;;;5053391;28;20136;-71
2022/07/17 09:58:52;;;;;;;3.30;0.95;;;21.10;90.00;;;;;;5054303;28;20048;-71
2022/07/17 10:01:19;;;;;;;3.28;1.00;;;21.20;90.20;;;;;;5052314;28;20512;-71
2022/07/17 10:03:48;;;;;;;4.85;1.10;;;21.40;89.20;;;;;;5037838;28;20482;-71
2022/07/17 10:06:15;;;;;;;3.28;1.25;;;21.10;89.30;;;;;;5053965;28;20060;-71
2022/07/17 10:08:40;;;;;;;2.83;1.10;;;21.20;90.50;;;;;;5051735;28;20373;-70
2022/07/17 10:11:08;;;;;;;3.13;1.27;;;21.30;91.00;;;;;;5053551;28;20044;-71
2022/07/17 10:13:39;;;;;;;8.25;1.20;;;21.60;90.50;;;;;;5028367;28;20079;-70
2022/07/17 10:16:05;;;;;;;;;;;21.80;89.70;;;;;;5038311;28;20040;-70
2022/07/17 10:18:41;;;;;;;6.32;1.20;;;21.80;88.80;;;;;;5050973;28;19916;-70
2022/07/17 10:21:11;;;;;;;5.00;1.50;;;21.90;89.40;;;;;;5061382;28;20040;-71
2022/07/17 10:23:38;;;;;;;5.07;1.48;;;21.90;88.90;;;;;;5056444;28;20870;-71
2022/07/17 10:26:03;;;;;;;6.60;1.38;;;21.90;89.10;;;;;;5055877;28;20040;-71
2022/07/17 10:28:46;;;;;;;5.50;1.40;;;21.90;89.60;;;;;;5054122;28;20520;-71
2022/07/17 10:31:26;;;;;;;11.27;1.38;;;22.00;89.30;;;;;;5045318;28;20050;-71
2022/07/17 10:34:10;;;;;;;1.90;1.30;;;22.20;89.10;;;;;;5030695;28;20040;-70
2022/07/17 10:36:38;;;;;;;5.95;1.27;;;21.50;86.80;;;;;;5067922;28;20044;-70
2022/07/17 10:39:30;;;;;;;4.13;1.10;;;21.80;88.60;;;;;;5053679;28;20458;-70
2022/07/17 10:41:57;;;;;;;;;;;22.10;88.90;;;;;;5028995;28;20049;-70
2022/07/17 10:44:27;;;;;;;3.13;1.60;;;22.20;88.30;;;;;;5030192;28;19920;-70
2022/07/17 10:46:54;;;;;;;5.38;1.48;;;22.40;88.20;;;;;;5048811;28;20049;-70
2022/07/17 10:49:20;;;;;;;2.35;0.95;;;22.60;87.30;;;;;;5054147;28;20083;-70
2022/07/17 10:51:50;;;;;;;4.45;1.50;;;22.40;86.00;;;;;;5051947;28;20067;-70
2022/07/17 10:54:17;;;;;;;3.55;1.10;;;22.60;86.90;;;;;;5048282;28;20484;-71
2022/07/17 10:56:46;;;;;;;3.30;1.20;;;22.80;87.30;;;;;;5035980;28;20124;-70
2022/07/17 10:59:11;;;;;;;3.95;1.25;;;22.90;86.10;;;;;;5050533;28;20040;-74
2022/07/17 11:01:38;;;;;;;4.05;1.65;;;23.10;86.40;;;;;;5052888;28;20711;-74
2022/07/17 11:04:04;;;;;;;2.10;1.20;;;23.10;85.60;;;;;;5065119;28;20119;-74
2022/07/17 11:06:34;;;;;;;3.35;1.50;;;23.20;86.10;;;;;;5051298;28;20048;-74
2022/07/17 11:09:02;;;;;;;4.38;1.23;;;23.20;86.20;;;;;;5043798;28;20029;-74
2022/07/17 11:11:49;;;;;;;2.60;1.00;;;23.20;86.70;;;;;;5049136;28;20080;-74
2022/07/17 11:14:22;;;;;;;5.07;2.17;;;23.30;86.80;;;;;;5052620;28;20037;-74
2022/07/17 11:16:56;;;;;;;2.08;1.10;;;23.40;84.80;;;;;;5053682;28;20055;-74
2022/07/17 11:19:33;;;;;;;2.17;1.10;;;23.30;84.10;;;;;;5044924;28;20167;-74
2022/07/17 11:22:03;;;;;;;2.47;1.20;;;23.30;84.80;;;;;;5034848;28;20075;-73
2022/07/17 11:24:37;;;;;;;3.17;1.15;;;23.40;84.90;;;;;;5034900;28;20053;-74
2022/07/17 11:27:03;;;;;;;3.80;1.58;;;23.50;84.10;;;;;;5049149;28;20041;-74
2022/07/17 11:29:28;;;;;;;4.82;1.65;;;23.10;82.80;;;;;;5052367;28;20048;-74
2022/07/17 11:31:57;;;;;;;2.97;2.00;;;23.20;84.90;;;;;;5038303;28;20048;-74
2022/07/17 11:34:25;;;;;;;4.22;1.35;;;22.90;83.50;;;;;;5040667;28;20058;-74
2022/07/17 11:36:50;;;;;;;4.45;1.75;;;23.00;84.60;;;;;;5036998;28;20106;-74
2022/07/17 11:39:18;;;;;;;3.40;1.40;;;23.10;85.40;;;;;;5054658;28;20508;-74
2022/07/17 11:41:46;;;;;;;3.42;1.30;;;23.20;85.20;;;;;;5068258;28;20044;-74
2022/07/17 11:44:20;;;;;;;3.25;1.35;;;23.40;85.90;;;;;;5040291;28;20136;-74
2022/07/17 11:46:48;;;;;;;2.38;1.33;;;23.50;83.50;;;;;;5048070;28;20036;-71
2022/07/17 11:49:25;;;;;;;2.20;1.40;;;23.40;82.40;;;;;;5069101;28;20033;-71
2022/07/17 11:51:51;;;;;;;4.15;1.40;;;23.30;83.50;;;;;;5052767;28;20107;-70
2022/07/17 11:54:17;;;;;;;5.28;3.40;;;23.40;84.10;;;;;;5041003;28;20112;-71
2022/07/17 11:56:53;;;;;;;3.00;1.40;;;23.40;84.10;;;;;;5053233;28;20052;-71
2022/07/17 11:59:29;;;;;;;3.13;1.48;;;23.60;83.30;;;;;;5049867;28;20045;-71
2022/07/17 12:01:56;;;;;;;4.18;1.70;;;23.50;82.50;;;;;;5051992;28;20047;-71
2022/07/17 12:04:22;;;;;;;5.03;1.40;;;23.40;82.20;;;;;;5050752;28;20037;-71
2022/07/17 12:07:00;;;;;;;1.58;1.17;;;23.60;83.40;;;;;;5048747;28;20044;-71
2022/07/17 12:09:35;;;;;;;3.33;1.52;;;23.60;81.40;;;;;;5052980;28;20036;-71
2022/07/17 12:12:01;;;;;;;3.65;1.55;;;23.70;83.10;;;;;;5049669;28;20534;-71
2022/07/17 12:14:27;;;;;;;3.75;1.70;;;23.80;83.20;;;;;;5040319;28;20106;-71
2022/07/17 12:16:57;;;;;;;2.92;1.80;;;23.60;80.30;;;;;;5036149;28;20474;-71
2022/07/17 12:19:24;;;;;;;4.10;2.00;;;23.50;78.80;;;;;;5056782;28;20102;-70
2022/07/17 12:21:53;;;;;;;3.08;1.50;;;23.10;79.80;;;;;;5056957;28;20048;-70
2022/07/17 12:24:21;;;;;;;2.67;1.55;;;23.40;83.00;;;;;;5051643;28;20102;-71
2022/07/17 12:26:47;;;;;;;3.25;1.80;;;23.50;81.00;;;;;;5055982;28;20033;-70
2022/07/17 12:29:13;;;;;;;4.45;1.60;;;23.70;82.60;;;;;;5056319;28;20054;-71
2022/07/17 12:31:39;;;;;;;1.77;1.50;;;24.00;82.00;;;;;;5050949;28;20037;-71
2022/07/17 12:34:04;;;;;;;2.40;1.63;;;24.20;81.70;;;;;;5055003;28;20040;-70
2022/07/17 12:36:30;;;;;;;2.70;1.73;;;24.20;81.00;;;;;;5076033;28;20062;-70
2022/07/17 12:38:56;;;;;;;3.08;1.30;;;24.30;80.90;;;;;;5050022;28;20144;-70
2022/07/17 12:41:21;;;;;;;3.25;1.85;;;24.40;82.10;;;;;;5056073;28;20076;-70
2022/07/17 12:43:47;;;;;;;2.67;2.10;;;24.50;80.40;;;;;;5055898;28;20055;-70
2022/07/17 12:46:13;;;;;;;3.08;2.10;;;24.50;80.40;;;;;;5046890;28;20045;-70
2022/07/17 12:48:40;;;;;;;3.75;2.00;;;24.60;80.50;;;;;;5039131;28;20028;-70
2022/07/17 12:51:07;;;;;;;3.05;2.15;;;24.60;80.00;;;;;;5052873;28;20037;-70